Stations météo

réclame
Mon MeteoGroup
Petisträsk, Suède (2282): Température de l'air & dewpoint: 18.10.2018 07:00:00 - 24.10.2018 07:00:00 (CEST)Petisträsk, Suède (2282): Vitesse du vent & gusts: 18.10.2018 07:00:00 - 24.10.2018 07:00:00 (CEST)Petisträsk, Suède (2282): Direction du vent: 18.10.2018 07:00:00 - 24.10.2018 07:00:00 (CEST)Petisträsk, Suède (2282): visibility: 18.10.2018 07:00:00 - 24.10.2018 07:00:00 (CEST)Petisträsk, Suède (2282): Quantités de précipitations: 18.10.2018 07:00:00 - 24.10.2018 07:00:00 (CEST)
Date & Time tt [°C] td [°C] ff [km/h] ff [knt] fx [km/h] fx [knt] dd vv [km] rr [mm]
24.10.2018 07:00:00 -3,9 -4,4 4 2 8 4 W 50 0,0
24.10.2018 06:00:00 -3,7 -4,2 6 3 9 5 WNW 50 0,0
24.10.2018 05:00:00 -3,1 -3,8 5 3 9 5 W 50 0,0
24.10.2018 04:00:00 -2,3 -3,3 5 3 13 7 WNW 50 0,0
24.10.2018 03:00:00 -1,9 -2,9 5 3 11 6 NW 50 0,0
24.10.2018 02:00:00 -0,5 -1,2 5 3 12 7 WNW 50 0,0
24.10.2018 01:00:00 -0,3 -0,7 0 0 9 5 N 15 0,1
24.10.2018 00:00:00 -0,6 -0,7 6 3 10 6 WNW 50 0,0
23.10.2018 23:00:00 -2,2 -2,5 2 1 7 4 NNW 50 0,0
23.10.2018 22:00:00 -4,0 -4,3 3 2 5 3 WNW 50 0,0
23.10.2018 21:00:00 -4,1 -4,5 0 0 3 2 N 50 0,0
23.10.2018 20:00:00 -3,1 -3,5 0 0 7 4 N 50 0,0
23.10.2018 19:00:00 -2,8 -3,2 3 2 8 5 ENE 50 0,0
23.10.2018 18:00:00 -2,0 -2,7 3 2 6 3 E 50 0,0
23.10.2018 17:00:00 -0,2 -1,9 4 2 6 4 WNW 50 0,0
23.10.2018 16:00:00 0,2 -1,9 2 1 3 2 W 50 0,0
23.10.2018 15:00:00 1,3 -1,9 0 0 6 3 N 50 0,0
23.10.2018 14:00:00 1,6 -1,6 3 1 8 4 W 50 0,0
23.10.2018 13:00:00 1,3 -1,4 6 3 11 6 W 41 0,0
23.10.2018 12:00:00 2,0 -1,3 0 0 4 2 N 38 0,0
23.10.2018 11:00:00 0,3 -1,8 0 0 4 2 N 48 0,0
23.10.2018 10:00:00 -1,2 -1,9 0 0 5 3 N 49 0,0
23.10.2018 09:00:00 -3,7 -3,8 0 0 6 3 N 49 0,0
23.10.2018 08:00:00 -4,1 -4,4 0 0 5 3 N 50 0,0
23.10.2018 07:00:00 -3,1 -3,2 3 2 5 3 W 50 0,0
23.10.2018 06:00:00 -3,3 -3,8 0 0 7 4 N 50 0,0
23.10.2018 05:00:00 -3,4 -4,1 3 1 9 5 N 50 0,0
23.10.2018 04:00:00 -3,2 -3,7 0 0 7 4 N 50 0,0
23.10.2018 03:00:00 -2,1 -3,2 0 0 9 5 N 50 0,0
23.10.2018 02:00:00 0,2 -1,9 6 4 13 7 W 50 0,0
23.10.2018 01:00:00 0,5 -1,9 7 4 13 7 W 50 0,0
23.10.2018 00:00:00 1,0 -1,6 8 4 16 8 W 50 0,0
22.10.2018 23:00:00 1,4 -1,7 8 4 17 9 W 50 0,0
22.10.2018 22:00:00 2,0 -1,3 8 5 13 7 W 50 0,0
22.10.2018 21:00:00 2,6 -1,0 8 5 22 12 W 50 0,0
22.10.2018 20:00:00 3,1 -0,4 10 6 16 9 W 50 0,0
22.10.2018 19:00:00 3,4 -0,1 8 5 19 10 W 50 0,0
22.10.2018 18:00:00 3,8 0,0 13 7 22 12 W 50 0,0
22.10.2018 17:00:00 3,9 -1,1 11 6 19 10 W 50 0,0
22.10.2018 16:00:00 4,2 -1,2 12 6 18 10 W 50 0,0
22.10.2018 15:00:00 4,9 -0,3 6 3 23 13 W 50 0,0
22.10.2018 14:00:00 4,6 -0,4 11 6 24 13 W 50 0,0
22.10.2018 13:00:00 4,7 -0,3 11 6 22 12 W 50 0,0
22.10.2018 12:00:00 4,6 -0,2 11 6 23 12 W 50 0,0
22.10.2018 11:00:00 3,4 0,4 8 5 25 14 WSW 45 0,0
22.10.2018 10:00:00 2,7 0,4 10 5 23 13 W 50 0,0
22.10.2018 09:00:00 2,5 0,6 9 5 21 12 W 50 0,0
22.10.2018 08:00:00 1,8 0,3 7 4 11 6 W 40 0,0
22.10.2018 07:00:00 1,7 0,4 5 3 16 9 WSW 28 0,0
22.10.2018 06:00:00 0,6 -0,3 4 2 9 5 NW 26 0,0
22.10.2018 05:00:00 0,9 -0,4 3 2 11 6 NW 36 0,0
22.10.2018 04:00:00 3,1 1,5 7 4 12 6 W 46 0,0
22.10.2018 03:00:00 4,1 3,4 6 3 10 5 W 50 0,0
22.10.2018 02:00:00 4,9 4,5 4 2 13 7 W 50 0,0
22.10.2018 01:00:00 4,9 4,8 5 3 9 5 SW 32 0,3
22.10.2018 00:00:00 5,2 4,6 3 2 16 9 WSW 16 0,6
21.10.2018 23:00:00 5,7 5,0 4 2 10 5 WSW 18 0,1
21.10.2018 22:00:00 5,7 5,0 3 1 11 6 SW 50 0,0
21.10.2018 21:00:00 5,9 5,0 3 2 10 6 SW 41 0,0
21.10.2018 20:00:00 6,0 4,8 3 2 11 6 SW 50 0,0
21.10.2018 19:00:00 6,0 4,8 3 2 16 8 SW 50 0,0
21.10.2018 18:00:00 6,6 4,8 7 4 16 9 SW 50 0,0
21.10.2018 17:00:00 6,2 5,2 5 3 13 7 SW 50 0,0
21.10.2018 16:00:00 6,1 5,2 4 2 21 11 SW 50 0,0
21.10.2018 15:00:00 6,3 5,4 7 4 21 11 WSW 50 0,0
21.10.2018 14:00:00 6,5 5,6 8 4 21 11 SW 50 0,0
21.10.2018 13:00:00 5,9 5,2 6 3 16 9 WSW 50 0,0
21.10.2018 12:00:00 5,4 4,8 4 2 16 8 W 50 0,0
21.10.2018 11:00:00 5,1 4,7 4 2 13 7 WSW 50 0,0
21.10.2018 10:00:00 4,5 4,2 5 3 16 9 SSW 50 0,0
21.10.2018 09:00:00 3,9 3,6 3 2 21 11 SSW 38 0,1
21.10.2018 08:00:00 3,8 3,5 4 2 23 13 S 8 1,9
21.10.2018 07:00:00 3,8 3,2 3 2 24 13 SW 16 0,3
21.10.2018 06:00:00 3,4 2,8 8 4 24 13 S 50 0,7
21.10.2018 05:00:00 3,4 2,5 5 3 17 9 SSW 41 0,1
21.10.2018 04:00:00 2,9 2,6 4 2 16 8 SSW 50 0,1
21.10.2018 03:00:00 1,9 1,9 5 3 11 6 S 50 0,0
21.10.2018 02:00:00 0,5 0,5 5 3 8 5 E 50 0,0
21.10.2018 01:00:00 -0,6 -0,6 0 0 5 3 N 50 0,0
21.10.2018 00:00:00 -0,1 -0,1 0 0 5 3 N 44 0,0
20.10.2018 23:00:00 -0,1 -0,1 3 2 5 3 S 50 0,0
20.10.2018 22:00:00 -0,2 -0,2 3 1 5 3 SSE 50 0,0
20.10.2018 21:00:00 -0,6 -0,6 0 0 4 2 N 50 0,0
20.10.2018 20:00:00 0,4 0,4 0 0 6 4 N 2,8 0,0
20.10.2018 19:00:00 1,0 1,0 0 0 2 1 N 14 0,0
20.10.2018 18:00:00 1,6 1,2 0 0 2 1 N 50 0,0
20.10.2018 17:00:00 4,4 4,0 0 0 4 2 N 50 0,0
20.10.2018 16:00:00 6,0 4,3 4 2 10 5 W 50 0,0
20.10.2018 15:00:00 6,1 4,7 4 2 8 4 W 50 0,0
20.10.2018 14:00:00 6,0 4,8 3 2 7 4 W 50 0,0
20.10.2018 13:00:00 5,8 5,1 4 2 6 3 W 27 0,2
20.10.2018 12:00:00 5,1 4,7 0 0 2 1 N 17 0,3
20.10.2018 11:00:00 3,6 3,2 0 0 2 1 N 43 0,1
20.10.2018 10:00:00 2,7 2,6 0 0 3 2 N 25 0,1
20.10.2018 09:00:00 1,5 1,4 0 0 3 1 N 30 0,0
20.10.2018 08:00:00 1,1 1,0 2 1 5 3 E 42 0,0
20.10.2018 07:00:00 1,0 0,7 0 0 3 1 N 50 0,0
20.10.2018 06:00:00 1,0 0,6 0 0 4 2 N 30 0,0
20.10.2018 05:00:00 0,0 -0,4 0 0 2 1 N 50 0,0
20.10.2018 04:00:00 0,1 -0,5 0 0 2 1 N 50 0,0
20.10.2018 03:00:00 0,9 0,2 0 0 3 2 N 50 0,0
20.10.2018 02:00:00 0,8 0,1 0 0 2 1 N 50 0,0
20.10.2018 01:00:00 1,6 0,4 0 0 3 2 N 50 0,0
20.10.2018 00:00:00 1,3 0,1 0 0 6 3 N 50 0,0
19.10.2018 23:00:00 0,6 -0,1 0 0 6 3 N 50 0,0
19.10.2018 22:00:00 0,2 -0,5 0 0 6 4 N 50 0,0
19.10.2018 21:00:00 0,8 -0,2 5 3 7 4 W 50 0,0
19.10.2018 20:00:00 0,7 -0,6 0 0 6 3 N 50 0,0
19.10.2018 19:00:00 1,4 0,1 0 0 6 3 N 50 0,0
19.10.2018 18:00:00 3,2 -0,1 2 1 11 6 WNW 50 0,0
19.10.2018 17:00:00 5,8 1,5 8 4 16 9 WNW 50 0,0
19.10.2018 16:00:00 7,5 1,8 12 7 21 12 W 50 0,0
19.10.2018 15:00:00 7,7 1,7 12 6 29 15 W 50 0,0
19.10.2018 14:00:00 7,9 1,7 16 9 35 19 WNW 50 0,0
19.10.2018 13:00:00 7,6 1,7 16 8 30 16 WNW 50 0,0
19.10.2018 12:00:00 7,1 1,8 19 11 29 15 WNW 50 0,0
19.10.2018 11:00:00 6,6 2,1 15 8 26 14 WNW 50 0,0
19.10.2018 10:00:00 5,7 1,8 13 7 22 12 W 50 0,0
19.10.2018 09:00:00 4,7 1,5 10 5 16 9 W 50 0,0
19.10.2018 08:00:00 4,2 1,2 9 5 24 13 W 50 0,0
19.10.2018 07:00:00 4,5 1,2 12 7 23 13 W 50 0,0
19.10.2018 06:00:00 4,7 1,2 15 8 22 12 W 50 0,0
19.10.2018 05:00:00 4,6 1,1 11 6 18 10 W 50 0,0
19.10.2018 04:00:00 4,6 1,3 11 6 19 11 W 50 0,0
19.10.2018 03:00:00 4,9 1,6 12 7 21 11 W 50 0,0
19.10.2018 02:00:00 4,8 1,5 9 5 20 11 W 50 0,0
19.10.2018 01:00:00 5,1 1,4 11 6 18 10 W 50 0,0
19.10.2018 00:00:00 5,3 1,6 9 5 16 9 W 50 0,0
18.10.2018 23:00:00 5,4 1,7 9 5 15 8 W 50 0,0
18.10.2018 22:00:00 4,9 1,6 3 2 17 9 W 50 0,0
18.10.2018 21:00:00 5,6 1,9 8 4 19 11 W 50 0,0
18.10.2018 20:00:00 5,9 1,8 9 5 23 12 W 50 0,0
18.10.2018 19:00:00 6,4 1,9 10 6 21 11 W 50 0,0
18.10.2018 18:00:00 6,6 1,7 10 5 19 11 W 50 0,0
18.10.2018 17:00:00 6,9 1,8 8 4 21 12 W 50 0,0
18.10.2018 16:00:00 7,2 1,5 10 6 21 11 W 50 0,0
18.10.2018 15:00:00 7,6 1,2 13 7 23 13 W 50 0,0
18.10.2018 14:00:00 7,5 1,3 9 5 20 11 W 50 0,0
18.10.2018 13:00:00 7,3 1,6 12 7 22 12 W 50 0,0
18.10.2018 12:00:00 7,3 2,2 9 5 16 9 W 46 0,0
18.10.2018 11:00:00 6,6 2,7 6 4 14 8 W 45 0,0
18.10.2018 10:00:00 5,6 2,6 9 5 14 7 W 46 0,0
18.10.2018 09:00:00 3,0 2,7 5 3 9 5 W 48 0,0
18.10.2018 08:00:00 2,0 1,9 0 0 6 3 N 50 0,0
18.10.2018 07:00:00 3,4 2,8 5 3 9 5 WNW 50 0,0

tt = Température de l'air
td = dewpoint
ff = Vitesse du vent
fx = gusts
dd = Direction du vent
vv = visibility
rr = Quantités de précipitations

stations d'obs. à proximité